sensor_id;sensor_type;location;lat;lon;timestamp;temperature;humidity
80706;DHT22;70229;48.010;7.852;2023-08-06T00:01:50;17.70;90.10
80706;DHT22;70229;48.010;7.852;2023-08-06T00:04:15;16.90;90.30
80706;DHT22;70229;48.010;7.852;2023-08-06T00:06:41;16.90;90.50
80706;DHT22;70229;48.010;7.852;2023-08-06T00:09:06;16.60;90.70
80706;DHT22;70229;48.010;7.852;2023-08-06T00:11:32;16.40;91.00
80706;DHT22;70229;48.010;7.852;2023-08-06T00:13:58;16.30;91.40
80706;DHT22;70229;48.010;7.852;2023-08-06T00:16:23;16.40;91.30
80706;DHT22;70229;48.010;7.852;2023-08-06T00:18:49;17.00;91.80
80706;DHT22;70229;48.010;7.852;2023-08-06T00:21:14;16.30;91.60
80706;DHT22;70229;48.010;7.852;2023-08-06T00:23:40;16.30;91.80
80706;DHT22;70229;48.010;7.852;2023-08-06T00:26:06;16.30;91.70
80706;DHT22;70229;48.010;7.852;2023-08-06T00:28:32;17.50;92.00
80706;DHT22;70229;48.010;7.852;2023-08-06T00:30:57;16.40;91.50
80706;DHT22;70229;48.010;7.852;2023-08-06T00:33:24;16.70;91.30
80706;DHT22;70229;48.010;7.852;2023-08-06T00:35:49;16.50;91.20
80706;DHT22;70229;48.010;7.852;2023-08-06T00:38:15;16.50;91.30
80706;DHT22;70229;48.010;7.852;2023-08-06T00:40:41;16.50;91.00
80706;DHT22;70229;48.010;7.852;2023-08-06T00:43:07;16.60;91.00
80706;DHT22;70229;48.010;7.852;2023-08-06T00:45:37;16.50;91.20
80706;DHT22;70229;48.010;7.852;2023-08-06T00:48:05;16.90;90.90
80706;DHT22;70229;48.010;7.852;2023-08-06T00:50:32;16.60;90.70
80706;DHT22;70229;48.010;7.852;2023-08-06T00:52:58;17.20;90.50
80706;DHT22;70229;48.010;7.852;2023-08-06T00:55:24;16.60;90.50
80706;DHT22;70229;48.010;7.852;2023-08-06T00:57:50;17.50;91.00
80706;DHT22;70229;48.010;7.852;2023-08-06T01:00:18;16.70;90.10
80706;DHT22;70229;48.010;7.852;2023-08-06T01:02:48;16.70;89.80
80706;DHT22;70229;48.010;7.852;2023-08-06T01:05:14;16.80;90.00
80706;DHT22;70229;48.010;7.852;2023-08-06T01:10:26;16.80;88.00
80706;DHT22;70229;48.010;7.852;2023-08-06T01:15:54;16.90;87.70
80706;DHT22;70229;48.010;7.852;2023-08-06T01:18:22;16.90;87.40
80706;DHT22;70229;48.010;7.852;2023-08-06T01:20:48;17.00;87.00
80706;DHT22;70229;48.010;7.852;2023-08-06T01:23:15;16.90;87.70
80706;DHT22;70229;48.010;7.852;2023-08-06T01:25:58;17.00;87.30
80706;DHT22;70229;48.010;7.852;2023-08-06T01:31:07;17.10;87.10
80706;DHT22;70229;48.010;7.852;2023-08-06T09:04:32;14.10;96.20
80706;DHT22;70229;48.010;7.852;2023-08-06T09:07:48;14.20;96.00
80706;DHT22;70229;48.010;7.852;2023-08-06T09:10:53;14.20;96.30
80706;DHT22;70229;48.010;7.852;2023-08-06T09:13:25;14.20;96.20
80706;DHT22;70229;48.010;7.852;2023-08-06T09:15:51;15.00;96.00
80706;DHT22;70229;48.010;7.852;2023-08-06T09:18:29;15.10;96.00
80706;DHT22;70229;48.010;7.852;2023-08-06T09:20:55;14.40;95.80
80706;DHT22;70229;48.010;7.852;2023-08-06T09:23:20;14.40;95.90
80706;DHT22;70229;48.010;7.852;2023-08-06T09:25:53;14.30;95.60
80706;DHT22;70229;48.010;7.852;2023-08-06T09:28:19;15.60;96.00
80706;DHT22;70229;48.010;7.852;2023-08-06T09:30:47;14.30;95.50
80706;DHT22;70229;48.010;7.852;2023-08-06T09:33:18;15.00;95.20
80706;DHT22;70229;48.010;7.852;2023-08-06T09:35:46;14.40;95.50
80706;DHT22;70229;48.010;7.852;2023-08-06T09:38:12;14.40;95.80
80706;DHT22;70229;48.010;7.852;2023-08-06T09:40:39;14.50;95.70
80706;DHT22;70229;48.010;7.852;2023-08-06T09:43:05;15.40;95.50
80706;DHT22;70229;48.010;7.852;2023-08-06T09:45:33;15.40;95.70
80706;DHT22;70229;48.010;7.852;2023-08-06T09:48:02;15.30;95.60
80706;DHT22;70229;48.010;7.852;2023-08-06T09:50:30;15.40;95.50
80706;DHT22;70229;48.010;7.852;2023-08-06T09:52:57;14.80;95.10
80706;DHT22;70229;48.010;7.852;2023-08-06T09:55:24;15.40;95.60
80706;DHT22;70229;48.010;7.852;2023-08-06T09:57:53;15.90;94.60
80706;DHT22;70229;48.010;7.852;2023-08-06T10:00:20;14.80;94.90
80706;DHT22;70229;48.010;7.852;2023-08-06T10:02:46;14.60;95.20
80706;DHT22;70229;48.010;7.852;2023-08-06T10:05:12;14.60;94.90
80706;DHT22;70229;48.010;7.852;2023-08-06T10:07:39;15.30;95.40
80706;DHT22;70229;48.010;7.852;2023-08-06T10:10:06;14.60;94.70
80706;DHT22;70229;48.010;7.852;2023-08-06T10:12:39;14.70;94.80
80706;DHT22;70229;48.010;7.852;2023-08-06T10:15:09;14.70;94.30
80706;DHT22;70229;48.010;7.852;2023-08-06T10:17:37;14.80;94.10
80706;DHT22;70229;48.010;7.852;2023-08-06T10:20:05;16.00;94.70
80706;DHT22;70229;48.010;7.852;2023-08-06T10:22:33;14.80;94.20
80706;DHT22;70229;48.010;7.852;2023-08-06T10:25:00;14.90;93.90
80706;DHT22;70229;48.010;7.852;2023-08-06T10:27:40;15.30;94.10
80706;DHT22;70229;48.010;7.852;2023-08-06T10:30:22;14.90;93.80
80706;DHT22;70229;48.010;7.852;2023-08-06T10:32:50;16.40;94.10
80706;DHT22;70229;48.010;7.852;2023-08-06T10:35:42;15.80;94.50
80706;DHT22;70229;48.010;7.852;2023-08-06T10:38:18;14.80;94.10
80706;DHT22;70229;48.010;7.852;2023-08-06T10:41:04;14.80;94.20
80706;DHT22;70229;48.010;7.852;2023-08-06T10:43:36;14.70;94.00
80706;DHT22;70229;48.010;7.852;2023-08-06T10:46:21;14.80;94.10
80706;DHT22;70229;48.010;7.852;2023-08-06T10:48:46;16.00;94.00
80706;DHT22;70229;48.010;7.852;2023-08-06T10:51:13;14.80;94.20
80706;DHT22;70229;48.010;7.852;2023-08-06T10:53:47;16.00;94.80
80706;DHT22;70229;48.010;7.852;2023-08-06T10:56:14;14.50;95.40
80706;DHT22;70229;48.010;7.852;2023-08-06T10:58:41;14.70;95.90
80706;DHT22;70229;48.010;7.852;2023-08-06T11:01:07;14.50;96.00
80706;DHT22;70229;48.010;7.852;2023-08-06T11:03:33;14.40;96.20
80706;DHT22;70229;48.010;7.852;2023-08-06T11:06:00;14.40;96.90
80706;DHT22;70229;48.010;7.852;2023-08-06T11:08:34;13.50;96.10
80706;DHT22;70229;48.010;7.852;2023-08-06T11:11:16;14.30;96.50
80706;DHT22;70229;48.010;7.852;2023-08-06T11:13:49;15.00;96.10
80706;DHT22;70229;48.010;7.852;2023-08-06T11:16:15;14.40;96.30
80706;DHT22;70229;48.010;7.852;2023-08-06T11:18:42;14.30;96.10
80706;DHT22;70229;48.010;7.852;2023-08-06T11:21:08;14.30;95.90
80706;DHT22;70229;48.010;7.852;2023-08-06T11:23:34;14.30;96.10
80706;DHT22;70229;48.010;7.852;2023-08-06T11:26:00;14.90;96.70
80706;DHT22;70229;48.010;7.852;2023-08-06T11:28:26;14.40;96.40
80706;DHT22;70229;48.010;7.852;2023-08-06T11:30:52;14.50;96.50
80706;DHT22;70229;48.010;7.852;2023-08-06T11:33:22;14.40;96.90
80706;DHT22;70229;48.010;7.852;2023-08-06T11:35:48;14.50;96.40
80706;DHT22;70229;48.010;7.852;2023-08-06T11:38:14;14.60;96.50
80706;DHT22;70229;48.010;7.852;2023-08-06T11:40:47;13.50;96.30
80706;DHT22;70229;48.010;7.852;2023-08-06T11:43:15;14.50;97.20
80706;DHT22;70229;48.010;7.852;2023-08-06T11:45:43;15.60;97.00
80706;DHT22;70229;48.010;7.852;2023-08-06T11:48:08;14.60;96.90
80706;DHT22;70229;48.010;7.852;2023-08-06T11:50:37;14.60;97.20
80706;DHT22;70229;48.010;7.852;2023-08-06T11:53:04;14.70;97.40
80706;DHT22;70229;48.010;7.852;2023-08-06T11:55:30;15.50;97.10
80706;DHT22;70229;48.010;7.852;2023-08-06T11:57:57;14.70;96.40
80706;DHT22;70229;48.010;7.852;2023-08-06T12:00:25;14.80;96.20
80706;DHT22;70229;48.010;7.852;2023-08-06T12:02:52;14.80;96.30
80706;DHT22;70229;48.010;7.852;2023-08-06T12:05:31;14.90;96.10
80706;DHT22;70229;48.010;7.852;2023-08-06T12:08:01;15.00;96.50
80706;DHT22;70229;48.010;7.852;2023-08-06T12:10:29;15.80;96.40
80706;DHT22;70229;48.010;7.852;2023-08-06T12:12:55;15.20;96.30
80706;DHT22;70229;48.010;7.852;2023-08-06T12:15:22;15.00;96.10
80706;DHT22;70229;48.010;7.852;2023-08-06T12:17:49;16.00;96.60
80706;DHT22;70229;48.010;7.852;2023-08-06T12:20:15;16.10;97.10
80706;DHT22;70229;48.010;7.852;2023-08-06T12:22:41;14.90;96.70
80706;DHT22;70229;48.010;7.852;2023-08-06T12:25:08;14.90;96.90
80706;DHT22;70229;48.010;7.852;2023-08-06T12:27:38;15.00;97.20
80706;DHT22;70229;48.010;7.852;2023-08-06T12:30:04;14.80;97.00
80706;DHT22;70229;48.010;7.852;2023-08-06T12:32:30;14.90;97.50
80706;DHT22;70229;48.010;7.852;2023-08-06T12:40:44;15.00;97.20
80706;DHT22;70229;48.010;7.852;2023-08-06T12:47:37;15.30;97.00
80706;DHT22;70229;48.010;7.852;2023-08-06T12:50:14;15.20;97.00
80706;DHT22;70229;48.010;7.852;2023-08-06T13:02:10;15.10;94.20
80706;DHT22;70229;48.010;7.852;2023-08-06T14:22:44;16.60;80.10
80706;DHT22;70229;48.010;7.852;2023-08-06T14:25:10;15.40;79.80
80706;DHT22;70229;48.010;7.852;2023-08-06T14:27:38;17.00;82.60
80706;DHT22;70229;48.010;7.852;2023-08-06T14:30:09;16.30;85.00
80706;DHT22;70229;48.010;7.852;2023-08-06T14:32:37;16.10;84.60
80706;DHT22;70229;48.010;7.852;2023-08-06T18:06:37;15.20;86.10
80706;DHT22;70229;48.010;7.852;2023-08-06T18:09:03;15.20;86.80
80706;DHT22;70229;48.010;7.852;2023-08-06T18:11:29;15.20;87.40
80706;DHT22;70229;48.010;7.852;2023-08-06T18:13:55;15.20;88.90
80706;DHT22;70229;48.010;7.852;2023-08-06T18:16:20;15.10;87.30
80706;DHT22;70229;48.010;7.852;2023-08-06T18:18:46;15.00;89.70
80706;DHT22;70229;48.010;7.852;2023-08-06T18:21:12;15.00;90.30
80706;DHT22;70229;48.010;7.852;2023-08-06T18:23:37;15.90;90.40
80706;DHT22;70229;48.010;7.852;2023-08-06T18:26:04;15.80;90.80
80706;DHT22;70229;48.010;7.852;2023-08-06T18:28:29;15.00;90.00
80706;DHT22;70229;48.010;7.852;2023-08-06T18:30:55;15.90;91.30
80706;DHT22;70229;48.010;7.852;2023-08-06T18:33:21;15.10;90.60
80706;DHT22;70229;48.010;7.852;2023-08-06T18:35:47;15.90;90.10
80706;DHT22;70229;48.010;7.852;2023-08-06T18:38:13;15.10;90.10
80706;DHT22;70229;48.010;7.852;2023-08-06T18:40:38;15.30;89.50
80706;DHT22;70229;48.010;7.852;2023-08-06T18:43:04;15.20;89.50
80706;DHT22;70229;48.010;7.852;2023-08-06T18:45:30;15.80;90.90
80706;DHT22;70229;48.010;7.852;2023-08-06T18:47:59;15.50;90.50
80706;DHT22;70229;48.010;7.852;2023-08-06T18:50:24;15.20;90.00
80706;DHT22;70229;48.010;7.852;2023-08-06T18:52:50;15.80;88.60
80706;DHT22;70229;48.010;7.852;2023-08-06T18:55:16;15.20;90.00
80706;DHT22;70229;48.010;7.852;2023-08-06T18:57:41;15.20;89.90
80706;DHT22;70229;48.010;7.852;2023-08-06T19:00:07;16.10;88.00
80706;DHT22;70229;48.010;7.852;2023-08-06T19:02:33;15.10;89.40
80706;DHT22;70229;48.010;7.852;2023-08-06T19:04:59;15.60;88.00
80706;DHT22;70229;48.010;7.852;2023-08-06T19:07:24;15.10;87.50
80706;DHT22;70229;48.010;7.852;2023-08-06T19:09:50;15.50;86.10
80706;DHT22;70229;48.010;7.852;2023-08-06T19:12:16;15.20;85.60
80706;DHT22;70229;48.010;7.852;2023-08-06T19:14:46;15.30;85.20
80706;DHT22;70229;48.010;7.852;2023-08-06T19:17:13;15.40;85.20
80706;DHT22;70229;48.010;7.852;2023-08-06T19:19:39;15.40;84.50
80706;DHT22;70229;48.010;7.852;2023-08-06T19:22:11;15.40;84.10
80706;DHT22;70229;48.010;7.852;2023-08-06T19:24:37;15.90;85.00
80706;DHT22;70229;48.010;7.852;2023-08-06T19:27:02;16.60;84.00
80706;DHT22;70229;48.010;7.852;2023-08-06T19:29:28;15.40;83.10
80706;DHT22;70229;48.010;7.852;2023-08-06T19:31:54;15.40;83.70
80706;DHT22;70229;48.010;7.852;2023-08-06T19:34:20;15.50;83.80
80706;DHT22;70229;48.010;7.852;2023-08-06T19:36:46;15.40;82.50
80706;DHT22;70229;48.010;7.852;2023-08-06T19:39:11;15.90;81.90
80706;DHT22;70229;48.010;7.852;2023-08-06T19:41:37;15.60;81.40
80706;DHT22;70229;48.010;7.852;2023-08-06T19:44:02;15.70;81.60
80706;DHT22;70229;48.010;7.852;2023-08-06T19:46:28;15.50;81.30
80706;DHT22;70229;48.010;7.852;2023-08-06T19:48:54;15.40;82.00
80706;DHT22;70229;48.010;7.852;2023-08-06T19:51:19;15.50;80.70
80706;DHT22;70229;48.010;7.852;2023-08-06T19:53:45;15.50;81.20
80706;DHT22;70229;48.010;7.852;2023-08-06T19:56:13;15.80;81.70
80706;DHT22;70229;48.010;7.852;2023-08-06T19:58:39;16.80;81.50
80706;DHT22;70229;48.010;7.852;2023-08-06T20:01:04;15.50;81.20
80706;DHT22;70229;48.010;7.852;2023-08-06T20:03:31;15.50;81.40
80706;DHT22;70229;48.010;7.852;2023-08-06T20:06:02;16.00;82.20
80706;DHT22;70229;48.010;7.852;2023-08-06T20:08:27;15.40;81.20
80706;DHT22;70229;48.010;7.852;2023-08-06T20:10:53;16.50;83.30
80706;DHT22;70229;48.010;7.852;2023-08-06T20:13:22;15.40;82.60
80706;DHT22;70229;48.010;7.852;2023-08-06T20:15:48;15.40;85.00
80706;DHT22;70229;48.010;7.852;2023-08-06T20:18:15;15.90;86.20
80706;DHT22;70229;48.010;7.852;2023-08-06T20:20:41;15.30;86.10
80706;DHT22;70229;48.010;7.852;2023-08-06T20:23:06;15.90;87.50
80706;DHT22;70229;48.010;7.852;2023-08-06T20:25:33;15.20;89.30
80706;DHT22;70229;48.010;7.852;2023-08-06T20:27:58;15.90;90.10
80706;DHT22;70229;48.010;7.852;2023-08-06T20:30:24;15.00;91.00
80706;DHT22;70229;48.010;7.852;2023-08-06T20:32:50;15.00;91.50
80706;DHT22;70229;48.010;7.852;2023-08-06T20:35:15;14.90;91.70
80706;DHT22;70229;48.010;7.852;2023-08-06T20:37:41;15.90;91.90
80706;DHT22;70229;48.010;7.852;2023-08-06T20:40:08;14.70;91.70
80706;DHT22;70229;48.010;7.852;2023-08-06T20:42:33;14.60;91.90
80706;DHT22;70229;48.010;7.852;2023-08-06T20:44:59;15.20;92.10
80706;DHT22;70229;48.010;7.852;2023-08-06T20:47:25;14.40;91.30
80706;DHT22;70229;48.010;7.852;2023-08-06T20:49:50;14.50;92.00
80706;DHT22;70229;48.010;7.852;2023-08-06T20:52:16;14.50;91.50
80706;DHT22;70229;48.010;7.852;2023-08-06T20:54:41;14.40;90.30
80706;DHT22;70229;48.010;7.852;2023-08-06T20:57:07;14.40;90.10
80706;DHT22;70229;48.010;7.852;2023-08-06T20:59:33;15.50;88.40
80706;DHT22;70229;48.010;7.852;2023-08-06T21:01:59;14.70;86.70
80706;DHT22;70229;48.010;7.852;2023-08-06T21:04:24;15.30;85.70
80706;DHT22;70229;48.010;7.852;2023-08-06T21:06:50;14.90;86.00
80706;DHT22;70229;48.010;7.852;2023-08-06T21:09:15;14.80;84.70
80706;DHT22;70229;48.010;7.852;2023-08-06T21:11:41;15.00;84.40
80706;DHT22;70229;48.010;7.852;2023-08-06T21:14:06;15.00;84.60
80706;DHT22;70229;48.010;7.852;2023-08-06T21:16:32;15.60;84.60
80706;DHT22;70229;48.010;7.852;2023-08-06T21:18:58;15.00;85.70
80706;DHT22;70229;48.010;7.852;2023-08-06T21:21:24;15.40;84.80
80706;DHT22;70229;48.010;7.852;2023-08-06T21:23:49;15.80;85.00
80706;DHT22;70229;48.010;7.852;2023-08-06T21:26:15;15.10;84.40
80706;DHT22;70229;48.010;7.852;2023-08-06T21:28:42;15.20;84.60
80706;DHT22;70229;48.010;7.852;2023-08-06T21:31:10;15.90;85.60
80706;DHT22;70229;48.010;7.852;2023-08-06T21:33:40;14.90;84.50
80706;DHT22;70229;48.010;7.852;2023-08-06T21:36:07;14.90;83.60
80706;DHT22;70229;48.010;7.852;2023-08-06T21:38:35;14.90;83.90
80706;DHT22;70229;48.010;7.852;2023-08-06T21:41:07;15.30;83.70
80706;DHT22;70229;48.010;7.852;2023-08-06T21:43:34;14.90;83.30
80706;DHT22;70229;48.010;7.852;2023-08-06T21:46:04;15.00;83.70
80706;DHT22;70229;48.010;7.852;2023-08-06T21:48:33;14.90;82.70
80706;DHT22;70229;48.010;7.852;2023-08-06T21:51:12;15.00;83.70
80706;DHT22;70229;48.010;7.852;2023-08-06T21:53:38;15.30;82.60
80706;DHT22;70229;48.010;7.852;2023-08-06T21:56:08;15.30;83.60
80706;DHT22;70229;48.010;7.852;2023-08-06T21:58:41;14.90;82.60
80706;DHT22;70229;48.010;7.852;2023-08-06T22:01:08;15.00;81.70
80706;DHT22;70229;48.010;7.852;2023-08-06T22:03:34;15.00;82.60
80706;DHT22;70229;48.010;7.852;2023-08-06T22:06:00;15.00;81.90
80706;DHT22;70229;48.010;7.852;2023-08-06T22:08:27;15.70;81.70
80706;DHT22;70229;48.010;7.852;2023-08-06T22:10:54;15.70;81.30
80706;DHT22;70229;48.010;7.852;2023-08-06T22:13:21;15.00;81.00
80706;DHT22;70229;48.010;7.852;2023-08-06T22:15:46;15.00;81.70
80706;DHT22;70229;48.010;7.852;2023-08-06T22:18:12;15.50;81.10
80706;DHT22;70229;48.010;7.852;2023-08-06T22:20:37;15.00;81.70
80706;DHT22;70229;48.010;7.852;2023-08-06T22:23:03;15.30;81.60
80706;DHT22;70229;48.010;7.852;2023-08-06T22:25:29;14.80;81.30
80706;DHT22;70229;48.010;7.852;2023-08-06T22:27:56;15.00;80.80
80706;DHT22;70229;48.010;7.852;2023-08-06T22:30:21;15.80;82.20
80706;DHT22;70229;48.010;7.852;2023-08-06T22:32:47;14.90;82.20
80706;DHT22;70229;48.010;7.852;2023-08-06T22:35:13;15.30;81.30
80706;DHT22;70229;48.010;7.852;2023-08-06T22:37:41;14.90;81.40
80706;DHT22;70229;48.010;7.852;2023-08-06T22:40:07;14.90;80.70
80706;DHT22;70229;48.010;7.852;2023-08-06T22:42:33;15.00;80.90
80706;DHT22;70229;48.010;7.852;2023-08-06T22:44:59;14.90;81.10
80706;DHT22;70229;48.010;7.852;2023-08-06T22:47:24;14.90;80.90
80706;DHT22;70229;48.010;7.852;2023-08-06T22:49:50;15.20;81.00
80706;DHT22;70229;48.010;7.852;2023-08-06T22:52:16;14.90;81.40
80706;DHT22;70229;48.010;7.852;2023-08-06T22:54:42;15.20;81.50
80706;DHT22;70229;48.010;7.852;2023-08-06T22:57:08;14.90;81.60
80706;DHT22;70229;48.010;7.852;2023-08-06T22:59:34;15.90;80.60
80706;DHT22;70229;48.010;7.852;2023-08-06T23:02:00;14.80;79.80
80706;DHT22;70229;48.010;7.852;2023-08-06T23:04:26;15.50;81.10
80706;DHT22;70229;48.010;7.852;2023-08-06T23:06:51;15.50;80.80
80706;DHT22;70229;48.010;7.852;2023-08-06T23:09:17;14.80;81.30
80706;DHT22;70229;48.010;7.852;2023-08-06T23:11:43;14.90;80.60
80706;DHT22;70229;48.010;7.852;2023-08-06T23:14:09;14.80;80.90
80706;DHT22;70229;48.010;7.852;2023-08-06T23:16:34;15.60;82.40
80706;DHT22;70229;48.010;7.852;2023-08-06T23:19:00;14.70;81.00
80706;DHT22;70229;48.010;7.852;2023-08-06T23:21:25;14.80;82.60
80706;DHT22;70229;48.010;7.852;2023-08-06T23:23:51;15.10;82.20
80706;DHT22;70229;48.010;7.852;2023-08-06T23:26:17;14.80;82.10
80706;DHT22;70229;48.010;7.852;2023-08-06T23:28:43;14.70;82.60
80706;DHT22;70229;48.010;7.852;2023-08-06T23:31:12;15.00;83.00
80706;DHT22;70229;48.010;7.852;2023-08-06T23:33:38;14.80;81.20
80706;DHT22;70229;48.010;7.852;2023-08-06T23:36:04;15.10;80.80
80706;DHT22;70229;48.010;7.852;2023-08-06T23:38:30;15.50;81.10
80706;DHT22;70229;48.010;7.852;2023-08-06T23:40:55;15.70;81.90
80706;DHT22;70229;48.010;7.852;2023-08-06T23:43:21;14.80;81.00
80706;DHT22;70229;48.010;7.852;2023-08-06T23:45:46;16.00;82.10
80706;DHT22;70229;48.010;7.852;2023-08-06T23:48:12;14.70;81.60
80706;DHT22;70229;48.010;7.852;2023-08-06T23:50:37;14.70;81.70
80706;DHT22;70229;48.010;7.852;2023-08-06T23:53:04;15.20;81.40
80706;DHT22;70229;48.010;7.852;2023-08-06T23:55:30;15.30;81.00
80706;DHT22;70229;48.010;7.852;2023-08-06T23:57:56;15.00;81.10
